Flight Track Log - Related Links

Times and Time Zones

All times are in EST time to prevent confusion due to time zone crossing. See the EJA922 flight status page for this flight to view local times or setup timezone preferences in your user account.

Time Position Orientation Groundspeed Altitude Reporting Facility
EST Latitude Longitude Course Direction KTS MPH feet Rate Location/Type
Wed 09:31:22 PM 42.2292 -76.8494 263° West 235 270 7,200  Level Cleveland Center
Wed 09:32:24 PM 42.2200 -76.9503 263° West 232 267 11,200 3,242 Climbing Cleveland Center
Wed 09:33:26 PM 42.2067 -77.0650 261° West 299 344 13,900 2,780 Climbing Cleveland Center
Wed 09:34:27 PM 42.1922 -77.1889 261° West 326 375 16,900 2,829 Climbing Cleveland Center
Wed 09:35:29 PM 42.1753 -77.3206 260° West 347 399 19,700 2,439 Climbing Cleveland Center
Wed 09:36:30 PM 42.1581 -77.4583 260° West 363 418 21,900 1,122 Climbing Cleveland Center
Wed 09:37:32 PM 42.1383 -77.6108 260° West 396 456 22,000 49 Climbing Cleveland Center
Wed 09:38:33 PM 42.1189 -77.7667 261° West 413 475 22,000  Level Cleveland Center
Wed 09:39:35 PM 42.0994 -77.9236 261° West 422 486 22,000  Level Cleveland Center
Wed 09:40:36 PM 42.0669 -78.0758 254° West 422 486 22,000  Level Cleveland Center
Wed 09:41:38 PM 42.0186 -78.2192 246° West 416 479 22,000  Level Cleveland Center
Wed 09:42:40 PM 41.9647 -78.3869 247° West 412 474 22,000  Level Cleveland Center
Wed 09:43:41 PM 41.9158 -78.5319 246° West 421 484 22,000  Level Cleveland Center
Wed 09:44:43 PM 41.8711 -78.6736 247° West 421 484 22,000  Level Cleveland Center
Wed 09:45:44 PM 41.8242 -78.8111 245° Southwest 413 475 22,000  Level Cleveland Center
Wed 09:46:46 PM 41.7775 -78.9567 247° West 419 482 22,000  Level Cleveland Center
Wed 09:47:47 PM 41.7317 -79.0989 247° West 418 481 22,000  Level Cleveland Center
Wed 09:48:49 PM 41.6842 -79.2392 246° West 418 481 22,000  Level Cleveland Center
Wed 09:49:50 PM 41.6253 -79.4072 245° Southwest 430 495 22,000  Level Cleveland Center
Wed 09:50:52 PM 41.5783 -79.5458 246° West 419 482 22,000  Level Cleveland Center
Wed 09:51:53 PM 41.5317 -79.6831 246° West 413 475 22,000  Level Cleveland Center
Wed 09:52:55 PM 41.4844 -79.8222 246° West 413 475 22,000 -488 Level Cleveland Center
Wed 09:53:56 PM 41.4372 -79.9592 245° Southwest 410 472 21,000 -1,073 Descending Cleveland Center
Wed 09:54:58 PM 41.3867 -80.1081 246° West 402 463 19,800 -1,171 Descending Cleveland Center
Wed 09:55:59 PM 41.3417 -80.2411 246° West 399 459 18,600 -1,171 Descending Cleveland Center
Wed 09:57:01 PM 41.2961 -80.3681 245° Southwest 397 457 17,400 -1,220 Descending Cleveland Center
Wed 09:58:02 PM 41.2506 -80.4983 245° Southwest 386 444 16,100 -1,268 Descending Cleveland Center
Wed 09:59:04 PM 41.2072 -80.6250 246° West 379 436 14,800 -1,463 Descending Cleveland Center
Wed 10:00:05 PM 41.1564 -80.7706 245° Southwest 368 423 13,100 -1,574 Descending Cleveland Center
Wed 10:01:06 PM 41.1186 -80.8756 244° Southwest 318 366 11,600 -1,463 Descending Cleveland Center
Wed 10:02:08 PM 41.0853 -80.9686 245° Southwest 286 329 10,100 -1,561 Descending Cleveland Center
Wed 10:03:09 PM 41.0544 -81.0572 245° Southwest 260 299 8,400 -1,672 Descending Cleveland Center
Wed 10:04:10 PM 41.0653 -81.1322 281° West 244 281 6,700 -1,707 Descending Cleveland Center
Wed 10:05:12 PM 41.0622 -81.1975 266° West 191 220 4,900 -1,756 Descending Cleveland Center
Wed 10:06:13 PM 41.0439 -81.2589 248° West 182 209 3,100 -976 Descending Cleveland Center
Wed 10:07:15 PM 41.0147 -81.2992 226° Southwest 155 178 2,900 -49 Descending Cleveland Center
Wed 10:08:16 PM 40.9942 -81.3294 228° Southwest 123 142 3,000  Climbing Cleveland Center
Wed 10:09:17 PM 40.9753 -81.3581 229° Southwest 108 124 2,900 -341 Descending Cleveland Center
Wed 10:10:19 PM 40.9547 -81.3881 228° Southwest 108 124 2,300 -683 Descending Cleveland Center
Wed 10:11:20 PM 40.9314 -81.4203 226° Southwest 111 128 1,500 -492 Descending Cleveland Center
Wed 10:12:21 PM 40.9064 -81.4578 229° Southwest 113 130 1,300 -197 Descending Cleveland Center
Wed 10:14:00 PM 40.9000 -81.4333 90° East  Level FlightAware Approximate

Login

Don't have an account? Register now (free) for customized features, flight alerts, and more!